FFL1201 KSNA-KVNY
Flight info
| Callsign | FFL1201 |
|---|---|
| Flight time | 0h 25m |
| Altitude | VFR/025 |
| Route | |
| Aircraft | TBM8/L-VGDW/C |
Departure
| Time | 2026-04-21 02:39 |
|---|---|
| Airport | John Wayne Orange County International Airport (KSNA) |
Arrival
| Time | 2026-04-21 03:05 |
|---|---|
| Airport | Van Nuys Airport (KVNY) |
| Time | Latitude | Longitude | Altitude | Speed | Heading |
|---|---|---|---|---|---|
| 2026-04-21 02:28 | 33.66791 | -117.87121 | 54 ft | 0 kts | 41° |
| 2026-04-21 02:33 | 33.66819 | -117.87131 | 52 ft | 11 kts | 309° |
| 2026-04-21 02:34 | 33.66901 | -117.87107 | 54 ft | 14 kts | 39° |
| 2026-04-21 02:34 | 33.66971 | -117.87036 | 53 ft | 15 kts | 41° |
| 2026-04-21 02:34 | 33.67076 | -117.86929 | 52 ft | 25 kts | 41° |
| 2026-04-21 02:34 | 33.67239 | -117.86796 | 49 ft | 28 kts | 32° |
| 2026-04-21 02:35 | 33.67359 | -117.86686 | 51 ft | 17 kts | 31° |
| 2026-04-21 02:35 | 33.67459 | -117.86620 | 50 ft | 17 kts | 28° |
| 2026-04-21 02:35 | 33.67572 | -117.86547 | 50 ft | 21 kts | 28° |
| 2026-04-21 02:35 | 33.67721 | -117.86453 | 49 ft | 28 kts | 26° |
| 2026-04-21 02:36 | 33.67894 | -117.86342 | 49 ft | 24 kts | 29° |
| 2026-04-21 02:36 | 33.68002 | -117.86274 | 49 ft | 13 kts | 18° |
| 2026-04-21 02:36 | 33.68059 | -117.86299 | 49 ft | 6 kts | 308° |
| 2026-04-21 02:36 | 33.68067 | -117.86314 | 49 ft | 0 kts | 300° |
| 2026-04-21 02:38 | 33.68069 | -117.86318 | 49 ft | 0 kts | 300° |
| 2026-04-21 02:38 | 33.68070 | -117.86320 | 49 ft | 2 kts | 299° |
| 2026-04-21 02:38 | 33.68077 | -117.86377 | 49 ft | 12 kts | 213° |
| 2026-04-21 02:39 | 33.68026 | -117.86410 | 49 ft | 29 kts | 208° |
| 2026-04-21 02:39 | 33.67636 | -117.86659 | 58 ft | 94 kts | 209° |
| 2026-04-21 02:39 | 33.67003 | -117.87043 | 380 ft | 107 kts | 210° |
| 2026-04-21 02:39 | 33.66624 | -117.87763 | 756 ft | 112 kts | 266° |
| 2026-04-21 02:40 | 33.66980 | -117.88635 | 1043 ft | 130 kts | 319° |
| 2026-04-21 02:40 | 33.67917 | -117.88919 | 1242 ft | 150 kts | 351° |
| 2026-04-21 02:40 | 33.68960 | -117.89035 | 1615 ft | 150 kts | 352° |
| 2026-04-21 02:40 | 33.70032 | -117.89205 | 1804 ft | 162 kts | 350° |
| 2026-04-21 02:41 | 33.71083 | -117.89617 | 1983 ft | 160 kts | 316° |
| 2026-04-21 02:41 | 33.71573 | -117.90780 | 2063 ft | 158 kts | 281° |
| 2026-04-21 02:41 | 33.71784 | -117.92063 | 2197 ft | 157 kts | 279° |
| 2026-04-21 02:41 | 33.72036 | -117.93375 | 2357 ft | 164 kts | 284° |
| 2026-04-21 02:42 | 33.72417 | -117.94702 | 2433 ft | 174 kts | 287° |
| 2026-04-21 02:42 | 33.72807 | -117.96114 | 2416 ft | 180 kts | 284° |
| 2026-04-21 02:42 | 33.73191 | -117.97565 | 2409 ft | 184 kts | 287° |
| 2026-04-21 02:42 | 33.73589 | -117.99028 | 2450 ft | 181 kts | 286° |
| 2026-04-21 02:43 | 33.73946 | -118.00346 | 3077 ft | 156 kts | 285° |
| 2026-04-21 02:43 | 33.74300 | -118.01636 | 3181 ft | 170 kts | 286° |
| 2026-04-21 02:43 | 33.74676 | -118.02987 | 3381 ft | 171 kts | 286° |
| 2026-04-21 02:43 | 33.75048 | -118.04354 | 3544 ft | 173 kts | 286° |
| 2026-04-21 02:44 | 33.75429 | -118.05719 | 3763 ft | 172 kts | 287° |
| 2026-04-21 02:44 | 33.75803 | -118.07087 | 3959 ft | 173 kts | 287° |
| 2026-04-21 02:44 | 33.76171 | -118.08455 | 4170 ft | 172 kts | 286° |
| 2026-04-21 02:44 | 33.76537 | -118.09821 | 4331 ft | 173 kts | 286° |
| 2026-04-21 02:45 | 33.76912 | -118.11212 | 4410 ft | 177 kts | 285° |
| 2026-04-21 02:45 | 33.77304 | -118.12625 | 4477 ft | 179 kts | 283° |
| 2026-04-21 02:45 | 33.77554 | -118.14093 | 4484 ft | 179 kts | 275° |
| 2026-04-21 02:45 | 33.77498 | -118.15562 | 4478 ft | 177 kts | 246° |
| 2026-04-21 02:46 | 33.77045 | -118.16940 | 4480 ft | 179 kts | 250° |
| 2026-04-21 02:46 | 33.76655 | -118.18364 | 4493 ft | 179 kts | 252° |
| 2026-04-21 02:46 | 33.76287 | -118.19799 | 4502 ft | 179 kts | 251° |
| 2026-04-21 02:46 | 33.75930 | -118.21235 | 4498 ft | 180 kts | 252° |
| 2026-04-21 02:47 | 33.75578 | -118.22676 | 4490 ft | 179 kts | 253° |
| 2026-04-21 02:47 | 33.75609 | -118.24159 | 4497 ft | 181 kts | 281° |
| 2026-04-21 02:47 | 33.75971 | -118.25607 | 4496 ft | 183 kts | 295° |
| 2026-04-21 02:47 | 33.76809 | -118.26773 | 4496 ft | 188 kts | 319° |
| 2026-04-21 02:48 | 33.77916 | -118.27742 | 4509 ft | 208 kts | 324° |
| 2026-04-21 02:48 | 33.79172 | -118.28723 | 4520 ft | 222 kts | 326° |
| 2026-04-21 02:48 | 33.80506 | -118.29737 | 4523 ft | 231 kts | 326° |
| 2026-04-21 02:48 | 33.81873 | -118.30784 | 4523 ft | 235 kts | 326° |
| 2026-04-21 02:49 | 33.83271 | -118.31866 | 4515 ft | 244 kts | 326° |
| 2026-04-21 02:49 | 33.84703 | -118.32976 | 4502 ft | 245 kts | 326° |
| 2026-04-21 02:49 | 33.86141 | -118.34082 | 4499 ft | 245 kts | 326° |
| 2026-04-21 02:49 | 33.87576 | -118.35193 | 4505 ft | 245 kts | 326° |
| 2026-04-21 02:50 | 33.88991 | -118.36288 | 4502 ft | 246 kts | 326° |
| 2026-04-21 02:50 | 33.90426 | -118.37398 | 4498 ft | 241 kts | 326° |
| 2026-04-21 02:50 | 33.91722 | -118.38359 | 4488 ft | 189 kts | 329° |
| 2026-04-21 02:50 | 33.92753 | -118.39109 | 4474 ft | 162 kts | 325° |
| 2026-04-21 02:51 | 33.93653 | -118.39826 | 4469 ft | 150 kts | 324° |
| 2026-04-21 02:51 | 33.94497 | -118.40526 | 4477 ft | 145 kts | 323° |
| 2026-04-21 02:51 | 33.95353 | -118.41234 | 4484 ft | 155 kts | 323° |
| 2026-04-21 02:51 | 33.96277 | -118.41973 | 4493 ft | 163 kts | 326° |
| 2026-04-21 02:52 | 33.97243 | -118.42716 | 4501 ft | 166 kts | 326° |
| 2026-04-21 02:52 | 33.98188 | -118.43426 | 4492 ft | 155 kts | 325° |
| 2026-04-21 02:52 | 33.99087 | -118.44122 | 4500 ft | 153 kts | 325° |
| 2026-04-21 02:52 | 33.99677 | -118.44593 | 4501 ft | 154 kts | 325° |
| 2026-04-21 02:53 | 34.00573 | -118.45295 | 4500 ft | 154 kts | 327° |
| 2026-04-21 02:53 | 34.01575 | -118.45768 | 4507 ft | 157 kts | 352° |
| 2026-04-21 02:53 | 34.02676 | -118.45897 | 4460 ft | 162 kts | 353° |
| 2026-04-21 02:53 | 34.03811 | -118.46075 | 4333 ft | 166 kts | 347° |
| 2026-04-21 02:54 | 34.04924 | -118.46512 | 4096 ft | 169 kts | 337° |
| 2026-04-21 02:54 | 34.05968 | -118.47109 | 3931 ft | 165 kts | 332° |
| 2026-04-21 02:54 | 34.06971 | -118.47782 | 3849 ft | 167 kts | 324° |
| 2026-04-21 02:54 | 34.07877 | -118.48705 | 3800 ft | 175 kts | 315° |
| 2026-04-21 02:55 | 34.08690 | -118.49819 | 3703 ft | 179 kts | 302° |
| 2026-04-21 02:55 | 34.09327 | -118.51130 | 3544 ft | 183 kts | 291° |
| 2026-04-21 02:55 | 34.09726 | -118.52581 | 3472 ft | 180 kts | 286° |
| 2026-04-21 02:55 | 34.10107 | -118.53995 | 3483 ft | 175 kts | 287° |
| 2026-04-21 02:56 | 34.10492 | -118.55382 | 3521 ft | 173 kts | 288° |
| 2026-04-21 02:56 | 34.11465 | -118.58065 | 3532 ft | 179 kts | 294° |
| 2026-04-21 02:56 | 34.12018 | -118.59402 | 3530 ft | 177 kts | 295° |
| 2026-04-21 02:57 | 34.12553 | -118.60735 | 3518 ft | 176 kts | 294° |
| 2026-04-21 02:57 | 34.13126 | -118.62042 | 3482 ft | 177 kts | 300° |
| 2026-04-21 02:57 | 34.13760 | -118.63320 | 3442 ft | 177 kts | 299° |
| 2026-04-21 02:57 | 34.14352 | -118.64607 | 3427 ft | 175 kts | 305° |
| 2026-04-21 02:58 | 34.15224 | -118.65624 | 3422 ft | 175 kts | 323° |
| 2026-04-21 02:58 | 34.16240 | -118.66427 | 3436 ft | 175 kts | 326° |
| 2026-04-21 02:58 | 34.17305 | -118.67129 | 3450 ft | 174 kts | 331° |
| 2026-04-21 02:58 | 34.18461 | -118.67554 | 3482 ft | 175 kts | 353° |
| 2026-04-21 02:59 | 34.19674 | -118.67432 | 3482 ft | 176 kts | 12° |
| 2026-04-21 02:59 | 34.20817 | -118.66923 | 3579 ft | 172 kts | 23° |
| 2026-04-21 02:59 | 34.21840 | -118.66152 | 3574 ft | 175 kts | 40° |
| 2026-04-21 02:59 | 34.22585 | -118.65004 | 3592 ft | 176 kts | 63° |
| 2026-04-21 03:00 | 34.23217 | -118.63698 | 3478 ft | 183 kts | 61° |
| 2026-04-21 03:00 | 34.23792 | -118.62332 | 3392 ft | 182 kts | 66° |
| 2026-04-21 03:00 | 34.24298 | -118.60944 | 3282 ft | 178 kts | 68° |
| 2026-04-21 03:00 | 34.24664 | -118.59579 | 3053 ft | 169 kts | 81° |
| 2026-04-21 03:01 | 34.24873 | -118.58229 | 2928 ft | 160 kts | 78° |
| 2026-04-21 03:01 | 34.25113 | -118.56968 | 2694 ft | 147 kts | 85° |
| 2026-04-21 03:01 | 34.25207 | -118.55818 | 2558 ft | 129 kts | 90° |
| 2026-04-21 03:01 | 34.25250 | -118.54783 | 2460 ft | 119 kts | 89° |
| 2026-04-21 03:02 | 34.25339 | -118.53798 | 2381 ft | 116 kts | 87° |
| 2026-04-21 03:02 | 34.25436 | -118.52814 | 2200 ft | 121 kts | 86° |
| 2026-04-21 03:02 | 34.25521 | -118.51798 | 2093 ft | 121 kts | 90° |
| 2026-04-21 03:02 | 34.25581 | -118.50798 | 1971 ft | 118 kts | 92° |
| 2026-04-21 03:03 | 34.25435 | -118.49869 | 1873 ft | 108 kts | 124° |
| 2026-04-21 03:03 | 34.24826 | -118.49433 | 1655 ft | 108 kts | 171° |
| 2026-04-21 03:03 | 34.24160 | -118.49363 | 1448 ft | 84 kts | 170° |
| 2026-04-21 03:03 | 34.23579 | -118.49302 | 1289 ft | 87 kts | 167° |
| 2026-04-21 03:04 | 34.22974 | -118.49236 | 1128 ft | 86 kts | 171° |
| 2026-04-21 03:04 | 34.22389 | -118.49171 | 1004 ft | 85 kts | 171° |
| 2026-04-21 03:04 | 34.21791 | -118.49118 | 888 ft | 86 kts | 170° |
| 2026-04-21 03:04 | 34.21225 | -118.49064 | 809 ft | 74 kts | 173° |
| 2026-04-21 03:05 | 34.20825 | -118.49026 | 806 ft | 32 kts | 175° |
| 2026-04-21 03:05 | 34.20693 | -118.49019 | 806 ft | 13 kts | 188° |
| 2026-04-21 03:05 | 34.20662 | -118.49090 | 806 ft | 10 kts | 264° |
| 2026-04-21 03:05 | 34.20618 | -118.49120 | 806 ft | 7 kts | 179° |
| 2026-04-21 03:06 | 34.20563 | -118.49115 | 806 ft | 9 kts | 174° |
| 2026-04-21 03:06 | 34.20484 | -118.49108 | 806 ft | 14 kts | 175° |
| 2026-04-21 03:06 | 34.20392 | -118.49101 | 806 ft | 11 kts | 175° |
| 2026-04-21 03:06 | 34.20326 | -118.49109 | 806 ft | 8 kts | 214° |
| 2026-04-21 03:07 | 34.20290 | -118.49131 | 806 ft | 3 kts | 179° |